Randolph AFB, TX

7:55 AM CDT on August 23, 2017 (GMT -0500)
Randolph Air Force Base

Weather History for KRND - December, 2015

Change the Weather History Date:

Saturday, December 12, 2015

  Actual Average Record
Temperature  
Mean Temperature 71 °F -  
Max Temperature 74 °F 62 °F 82 °F (1996)
Min Temperature 69 °F 40 °F 24 °F (1997)
Cooling Degree Days 6    
Growing Degree Days 21 (Base 50)    
Moisture  
Dew Point 70 °F    
Average Humidity 95    
Maximum Humidity 100    
Minimum Humidity 88    
Precipitation  
Precipitation 0.06 in - - ()
Sea Level Pressure  
Sea Level Pressure 29.75 in    
Wind  
Wind Speed 14 mph (SSE)    
Max Wind Speed 25 mph    
Max Gust Speed 36 mph    
Visibility 10 miles    
Events Rain    
Averages and records for this station are not official NWS values.
T = Trace of Precipitation, MM = Missing Value Source: NWS Daily Summary

Daily Weather History Graph

Daily Weather History Graph

Search for Another Location

Airport or City:

Trip Planner

Search our weather history database for the weather conditions in past years. The results will help you decide how hot, cold, wet, or windy it might be!

Date:

Astronomy

Dec. 12, 2015 Rise Set
Actual Time 7:18 AM CST 5:35 PM CST
Civil Twilight 6:52 AM CST 6:01 PM CST
Nautical Twilight 6:22 AM CST 6:31 PM CST
Astronomical Twilight 5:53 AM CST 7:00 PM CST
Moon 8:09 AM CST (12/12) 7:05 PM CST (12/12)
Length of Visible Light 11h 09m
Length of Day
10h 16m
New Moon, 2% of the Moon is Illuminated
Dec 12
New Moon
Dec 18
First Quarter
Dec 25
Full
Jan 1
Last Quarter
Jan 9
New

Hourly Weather History & Observations

Time (CST) Temp. Dew Point Humidity Pressure Visibility Wind Dir Wind Speed Gust Speed Precip Events Conditions
12:58 AM 71.1 °F 68.5 °F 92% 29.81 in 10.0 mi South 12.7 mph - N/A   Overcast
1:43 AM 71.6 °F 68.0 °F 88% 29.82 in 10.0 mi South 10.4 mph - N/A   Overcast
1:58 AM 71.1 °F 68.7 °F 92% 29.80 in 10.0 mi SSE 11.5 mph - N/A   Overcast
2:03 AM 71.6 °F 68.0 °F 88% 29.82 in 10.0 mi South 11.5 mph - N/A   Overcast
2:58 AM 71.1 °F 68.7 °F 92% 29.78 in 10.0 mi SSE 9.2 mph - N/A   Overcast
3:28 AM 71.6 °F 68.0 °F 88% 29.80 in 10.0 mi SSE 15.0 mph - N/A   Overcast
3:58 AM 70.7 °F 68.5 °F 93% 29.77 in 10.0 mi SSE 13.8 mph - N/A   Overcast
4:03 AM 71.6 °F 68.0 °F 88% 29.79 in 10.0 mi South 12.7 mph - N/A   Overcast
4:18 AM 71.6 °F 68.0 °F 88% 29.79 in 10.0 mi South 11.5 mph - N/A   Overcast
4:58 AM 70.9 °F 68.4 °F 92% 29.77 in 10.0 mi SSE 11.5 mph - N/A   Overcast
5:58 AM 70.7 °F 68.2 °F 92% 29.78 in 10.0 mi SSE 11.5 mph - N/A   Overcast
6:53 AM 69.8 °F 68.0 °F 94% 29.81 in 10.0 mi SSE 12.7 mph - N/A   Overcast
6:58 AM 70.5 °F 68.2 °F 92% 29.80 in 10.0 mi SSE 11.5 mph - N/A   Overcast
7:58 AM 70.5 °F 68.5 °F 93% 29.80 in 10.0 mi SSE 11.5 mph - N/A   Overcast
8:43 AM 71.6 °F 69.8 °F 94% 29.82 in 10.0 mi SSE 12.7 mph - N/A   Overcast
8:48 AM 71.6 °F 69.8 °F 94% 29.82 in 10.0 mi SE 11.5 mph - N/A   Overcast
8:58 AM 70.9 °F 69.4 °F 95% 29.81 in 10.0 mi SE 12.7 mph - N/A   Overcast
9:13 AM 71.6 °F 69.8 °F 94% 29.82 in 10.0 mi SSE 15.0 mph - N/A   Overcast
9:18 AM 71.6 °F 69.8 °F 94% 29.82 in 10.0 mi SSE 16.1 mph - N/A   Overcast
9:19 AM 71.6 °F 69.8 °F 94% 29.82 in 10.0 mi SSE 13.8 mph - N/A   Light Drizzle
9:58 AM 70.7 °F 70.5 °F 99% 29.81 in 10.0 mi SSE 19.6 mph - 0.01 in Rain Light Rain
10:18 AM 69.8 °F 69.8 °F 100% 29.81 in 10.0 mi SSE 25.3 mph - N/A Rain Light Rain
10:43 AM 71.6 °F 71.6 °F 100% 29.82 in 10.0 mi SSE 17.3 mph - N/A   Light Drizzle
10:58 AM 71.1 °F 71.1 °F 100% 29.81 in 10.0 mi SSE 17.3 mph - 0.00 in   Light Drizzle
11:22 AM 71.6 °F 71.6 °F 100% 29.81 in 10.0 mi SSE 16.1 mph - N/A   Overcast
11:42 AM 71.6 °F 71.6 °F 100% 29.80 in 10.0 mi South 17.3 mph - N/A   Light Drizzle
11:54 AM 71.6 °F 71.6 °F 100% 29.80 in 10.0 mi SSE 16.1 mph - N/A   Overcast
11:58 AM 71.8 °F 71.8 °F 100% 29.78 in 10.0 mi SSE 18.4 mph - 0.00 in   Overcast
12:29 PM 73.4 °F 71.6 °F 94% 29.77 in 10.0 mi South 18.4 mph - N/A   Light Drizzle
12:45 PM 73.4 °F 71.6 °F 94% 29.76 in 10.0 mi South 18.4 mph - N/A   Overcast
12:58 PM 73.2 °F 71.1 °F 93% 29.73 in 10.0 mi South 19.6 mph - 0.00 in   Overcast
1:09 PM 73.4 °F 69.8 °F 88% 29.75 in 10.0 mi South 16.1 mph - N/A   Light Drizzle
1:18 PM 73.4 °F 69.8 °F 88% 29.74 in 10.0 mi South 21.9 mph - N/A   Overcast
1:28 PM 73.4 °F 69.8 °F 88% 29.74 in 10.0 mi South 17.3 mph - N/A   Overcast
1:58 PM 73.8 °F 70.0 °F 88% 29.70 in 10.0 mi South 17.3 mph - 0.00 in   Overcast
2:58 PM 71.8 °F 70.7 °F 96% 29.69 in 9.0 mi South 12.7 mph - 0.02 in Rain Light Rain
3:13 PM 71.6 °F 69.8 °F 94% 29.71 in 10.0 mi South 11.5 mph - N/A Rain Light Rain
3:23 PM 71.6 °F 69.8 °F 94% 29.71 in 10.0 mi South 9.2 mph - N/A Rain Light Rain
3:28 PM 71.6 °F 69.8 °F 94% 29.71 in 10.0 mi South 9.2 mph - N/A Rain Light Rain
3:33 PM 71.6 °F 69.8 °F 94% 29.71 in 10.0 mi South 11.5 mph - N/A Rain Light Rain
3:37 PM 71.6 °F 69.8 °F 94% 29.71 in 10.0 mi South 10.4 mph - N/A   Mostly Cloudy
3:49 PM 71.6 °F 69.8 °F 94% 29.71 in 10.0 mi South 8.1 mph - N/A   Light Drizzle
3:50 PM 71.6 °F 69.8 °F 94% 29.71 in 10.0 mi South 8.1 mph - N/A   Mostly Cloudy
3:58 PM 71.4 °F 69.4 °F 93% 29.69 in 10.0 mi South 8.1 mph - 0.02 in   Mostly Cloudy
4:16 PM 71.6 °F 69.8 °F 94% 29.71 in 10.0 mi South 8.1 mph - N/A   Light Drizzle
4:26 PM 71.6 °F 71.6 °F 100% 29.71 in 10.0 mi South 9.2 mph - N/A   Light Drizzle
4:31 PM 71.6 °F 71.6 °F 100% 29.70 in 9.0 mi South 9.2 mph - N/A Rain Light Rain
4:51 PM 71.6 °F 71.6 °F 100% 29.70 in 7.0 mi SSE 9.2 mph - N/A   Light Drizzle
4:56 PM 71.6 °F 71.6 °F 100% 29.70 in 6.0 mi SSE 11.5 mph - N/A   Light Drizzle
4:58 PM 71.4 °F 71.4 °F 100% 29.68 in 6.0 mi SSE 10.4 mph - 0.01 in   Light Drizzle
5:05 PM 71.6 °F 71.6 °F 100% 29.70 in 7.0 mi SSE 11.5 mph - N/A   Overcast
5:45 PM 71.6 °F 71.6 °F 100% 29.70 in 9.0 mi SSE 10.4 mph - N/A   Overcast
5:55 PM 71.6 °F 71.6 °F 100% 29.69 in 9.0 mi SSE 13.8 mph - N/A   Light Drizzle
5:58 PM 71.8 °F 71.8 °F 100% 29.68 in 10.0 mi SSE 13.8 mph - 0.00 in   Light Drizzle
6:04 PM 71.6 °F 71.6 °F 100% 29.69 in 10.0 mi SSE 15.0 mph - N/A   Overcast
6:24 PM 71.6 °F 71.6 °F 100% 29.69 in 10.0 mi SSE 15.0 mph - N/A   Overcast
7:38 PM 73.4 °F 73.4 °F 100% 29.67 in 10.0 mi SSE 17.3 mph - N/A   Overcast
7:58 PM 72.9 °F 72.9 °F 100% 29.65 in 10.0 mi SSE 21.9 mph - N/A   Overcast
8:38 PM 73.4 °F 73.4 °F 100% 29.67 in 10.0 mi SSE 20.7 mph - N/A   Overcast
8:58 PM 73.2 °F 72.7 °F 98% 29.65 in 10.0 mi SSE 23.0 mph 35.7 mph N/A   Overcast
9:58 PM 73.8 °F 72.0 °F 94% 29.64 in 10.0 mi South 24.2 mph - N/A   Overcast
10:58 PM 73.9 °F 71.4 °F 92% 29.65 in 10.0 mi South 24.2 mph 29.9 mph N/A   Overcast
11:58 PM 74.1 °F 70.9 °F 90% 29.63 in 10.0 mi South 21.9 mph - N/A   Overcast